Time;durP1;ratioP1;P1;durP2;ratioP2;P2;SDS_P1;SDS_P2;PMS_P1;PMS_P2;Temp;Humidity;BMP_temperature;BMP_pressure;BME280_temperature;BME280_humidity;BME280_pressure;Samples;Min_cycle;Max_cycle;Signal;HPM_P1;HPM_P2
2022/02/17 00:02:15;;;;;;;;;;;;;;;11.51;100.00;98972.81;2567696;30;138289;-41
2022/02/17 00:04:43;;;;;;;;;;;;;;;11.54;100.00;98952.34;2567407;30;137333;-40
2022/02/17 00:07:11;;;;;;;;;;;;;;;11.56;100.00;98946.63;2567456;30;139283;-41
2022/02/17 00:09:38;;;;;;;;;;;;;;;11.59;100.00;98966.03;2567249;30;137214;-40
2022/02/17 00:12:06;;;;;;;;;;;;;;;11.59;100.00;98943.38;2569153;30;138330;-40
2022/02/17 00:14:34;;;;;;;;;;;;;;;11.53;100.00;98942.50;2568152;30;137822;-40
2022/02/17 00:17:02;;;;;;;;;;;;;;;11.45;100.00;98934.84;2567731;30;137677;-40
2022/02/17 00:19:30;;;;;;;;;;;;;;;11.35;100.00;98939.13;2568470;30;137032;-41
2022/02/17 00:21:58;;;;;;;;;;;;;;;11.29;100.00;98928.47;2566014;30;137911;-41
2022/02/17 00:24:27;;;;;;;;;;;;;;;11.20;100.00;98926.22;2567310;30;136962;-41
2022/02/17 00:26:54;;;;;;;;;;;;;;;11.17;100.00;98918.53;2566937;30;138992;-41
2022/02/17 00:29:22;;;;;;;;;;;;;;;11.18;100.00;98922.13;2566957;30;138034;-40
2022/02/17 00:31:50;;;;;;;;;;;;;;;11.12;100.00;98909.50;2566440;30;138243;-40
2022/02/17 00:34:18;;;;;;;;;;;;;;;11.02;100.00;98908.34;2568766;30;136943;-40
2022/02/17 00:36:46;;;;;;;;;;;;;;;10.99;100.00;98906.16;2569480;30;138364;-40
2022/02/17 00:39:14;;;;;;;;;;;;;;;10.97;100.00;98902.03;2568315;30;137282;-40
2022/02/17 00:41:45;;;;;;;;;;;;;;;11.01;100.00;98912.16;2566307;30;138266;-40
2022/02/17 00:44:13;;;;;;;;;;;;;;;11.04;100.00;98933.47;2567874;30;137097;-41
2022/02/17 00:46:41;;;;;;;;;;;;;;;11.00;100.00;98921.44;2568862;30;138133;-40
2022/02/17 00:49:09;;;;;;;;;;;;;;;11.01;100.00;98916.81;2568931;30;137371;-40
2022/02/17 00:51:37;;;;;;;;;;;;;;;10.96;100.00;98931.25;2569733;30;140037;-40
2022/02/17 00:54:05;;;;;;;;;;;;;;;10.93;100.00;98940.75;2568697;30;136768;-40
2022/02/17 00:56:34;;;;;;;;;;;;;;;10.88;100.00;98929.00;2568702;30;138399;-40
2022/02/17 00:59:02;;;;;;;;;;;;;;;10.89;100.00;98939.63;2567856;30;138165;-40
2022/02/17 01:01:30;;;;;;;;;;;;;;;10.87;100.00;98949.16;2567504;30;139841;-41
2022/02/17 01:04:02;;;;;;;;;;;;;;;10.79;100.00;98937.66;2568595;30;139288;-40
2022/02/17 01:06:30;;;;;;;;;;;;;;;10.72;100.00;98928.88;2568698;30;139271;-40
2022/02/17 01:08:57;;;;;;;;;;;;;;;10.63;100.00;98927.72;2568948;30;137133;-42
2022/02/17 01:11:25;;;;;;;;;;;;;;;10.57;100.00;98921.38;2567457;30;139085;-40
2022/02/17 01:13:53;;;;;;;;;;;;;;;10.50;100.00;98924.31;2570000;30;136887;-40
2022/02/17 01:16:21;;;;;;;;;;;;;;;10.48;100.00;98958.38;2567789;30;139433;-39
2022/02/17 01:18:48;;;;;;;;;;;;;;;10.46;100.00;98955.06;2567397;30;137775;-37
2022/02/17 01:21:20;;;;;;;;;;;;;;;10.41;100.00;98942.22;2568177;30;138989;-37
2022/02/17 01:23:48;;;;;;;;;;;;;;;10.37;100.00;98927.44;2567932;30;139135;-39
2022/02/17 01:26:22;;;;;;;;;;;;;;;10.38;100.00;98942.72;2569229;30;138331;-38
2022/02/17 01:28:55;;;;;;;;;;;;;;;10.35;100.00;98948.69;2568528;30;138491;-39
2022/02/17 01:31:28;;;;;;;;;;;;;;;10.36;100.00;98944.88;2567598;30;139319;-37
2022/02/17 01:34:08;;;;;;;;;;;;;;;10.39;100.00;98947.09;2569319;30;138246;-37
2022/02/17 01:36:39;;;;;;;;;;;;;;;10.35;100.00;98965.84;2568973;30;137972;-37
2022/02/17 01:39:06;;;;;;;;;;;;;;;10.39;100.00;98968.06;2567037;30;138813;-37
2022/02/17 01:41:37;;;;;;;;;;;;;;;10.34;100.00;98986.00;2567639;30;137267;-38
2022/02/17 01:44:11;;;;;;;;;;;;;;;10.32;100.00;98984.59;2567634;30;137400;-37
2022/02/17 01:46:42;;;;;;;;;;;;;;;10.31;100.00;98985.69;2567935;30;139924;-37
2022/02/17 01:49:10;;;;;;;;;;;;;;;10.30;100.00;99003.13;2568413;30;137390;-37
2022/02/17 01:51:42;;;;;;;;;;;;;;;10.25;100.00;99019.41;2567267;30;138400;-37
2022/02/17 01:54:10;;;;;;;;;;;;;;;10.22;100.00;99032.47;2568938;30;138175;-37
2022/02/17 01:56:41;;;;;;;;;;;;;;;10.15;100.00;99017.38;2567397;30;138318;-37
2022/02/17 01:59:10;;;;;;;;;;;;;;;10.06;100.00;99026.00;2568196;30;136985;-37
2022/02/17 02:01:45;;;;;;;;;;;;;;;10.02;100.00;99033.06;2566124;30;137789;-37
2022/02/17 02:04:12;;;;;;;;;;;;;;;9.95;100.00;99048.75;2568660;30;137335;-37
2022/02/17 02:06:43;;;;;;;;;;;;;;;9.91;100.00;99026.63;2568216;30;137295;-37
2022/02/17 02:09:11;;;;;;;;;;;;;;;9.91;100.00;99067.50;2568342;30;137153;-37
2022/02/17 02:12:04;;;;;;;;;;;;;;;9.78;100.00;99060.50;2568281;30;139493;-37
2022/02/17 02:14:33;;;;;;;;;;;;;;;9.68;100.00;99054.09;2565639;30;139558;-37
2022/02/17 02:17:01;;;;;;;;;;;;;;;9.57;100.00;99081.19;2567700;30;139193;-37
2022/02/17 02:19:29;;;;;;;;;;;;;;;9.50;100.00;99058.72;2568622;30;138727;-36
2022/02/17 02:21:58;;;;;;;;;;;;;;;9.45;100.00;99064.09;2567032;30;138048;-37
2022/02/17 02:24:26;;;;;;;;;;;;;;;9.37;100.00;99069.97;2568546;30;136831;-36
2022/02/17 02:26:54;;;;;;;;;;;;;;;9.31;100.00;99085.38;2568908;30;139298;-37
2022/02/17 02:29:28;;;;;;;;;;;;;;;9.27;100.00;99063.25;2569409;30;138392;-37
2022/02/17 02:31:56;;;;;;;;;;;;;;;9.27;100.00;99071.41;2568828;30;138337;-37
2022/02/17 02:34:23;;;;;;;;;;;;;;;9.32;100.00;99068.81;2568620;30;137794;-39
2022/02/17 02:36:53;;;;;;;;;;;;;;;9.32;100.00;99063.38;2568311;30;139646;-37
2022/02/17 02:39:21;;;;;;;;;;;;;;;9.41;100.00;99080.09;2566445;30;137906;-36
2022/02/17 02:41:54;;;;;;;;;;;;;;;9.40;100.00;99085.78;2566758;30;140577;-36
2022/02/17 02:44:21;;;;;;;;;;;;;;;9.47;100.00;99094.59;2566769;30;139115;-36
2022/02/17 02:47:01;;;;;;;;;;;;;;;9.55;100.00;99128.78;2568520;30;139855;-36
2022/02/17 02:49:31;;;;;;;;;;;;;;;9.46;100.00;99167.31;2567277;30;138235;-37
2022/02/17 02:51:59;;;;;;;;;;;;;;;9.18;100.00;99165.41;2567614;30;141137;-37
2022/02/17 02:54:40;;;;;;;;;;;;;;;8.95;100.00;99172.59;2568940;30;136573;-37
2022/02/17 02:57:08;;;;;;;;;;;;;;;8.86;100.00;99180.31;2567578;30;140544;-36
2022/02/17 02:59:40;;;;;;;;;;;;;;;8.77;100.00;99189.94;2567783;30;137896;-36
2022/02/17 03:02:10;;;;;;;;;;;;;;;8.70;100.00;99194.69;2566853;30;140172;-37
2022/02/17 03:04:39;;;;;;;;;;;;;;;8.67;100.00;99197.88;2569239;30;138329;-37
2022/02/17 03:07:14;;;;;;;;;;;;;;;8.69;100.00;99202.00;2566375;30;138388;-36
2022/02/17 03:09:44;;;;;;;;;;;;;;;8.65;100.00;99203.56;2568808;30;137446;-36
2022/02/17 03:12:15;;;;;;;;;;;;;;;8.61;100.00;99224.94;2567691;30;140689;-36
2022/02/17 03:14:44;;;;;;;;;;;;;;;8.61;100.00;99229.56;2568090;30;138097;-36
2022/02/17 03:17:22;;;;;;;;;;;;;;;8.63;100.00;99231.00;2569550;30;138377;-36
2022/02/17 03:19:52;;;;;;;;;;;;;;;8.66;100.00;99240.56;2567232;30;138317;-37
2022/02/17 03:22:20;;;;;;;;;;;;;;;8.71;100.00;99234.41;2566740;30;137282;-36
2022/02/17 03:24:49;;;;;;;;;;;;;;;8.77;100.00;99245.16;2565039;30;138827;-36
2022/02/17 03:27:18;;;;;;;;;;;;;;;8.72;100.00;99245.03;2567769;30;139326;-36
2022/02/17 03:29:46;;;;;;;;;;;;;;;8.85;100.00;99260.25;2566595;30;138186;-37
2022/02/17 03:32:15;;;;;;;;;;;;;;;8.90;100.00;99267.72;2567992;30;140091;-36
2022/02/17 03:34:43;;;;;;;;;;;;;;;8.90;100.00;99271.28;2569369;30;138001;-36
2022/02/17 03:37:11;;;;;;;;;;;;;;;8.92;100.00;99282.72;2568770;30;137345;-36
2022/02/17 03:39:39;;;;;;;;;;;;;;;9.00;98.83;99277.97;2566437;30;137703;-37
2022/02/17 03:42:33;;;;;;;;;;;;;;;8.95;99.88;99280.59;2566327;30;137461;-36
2022/02/17 03:45:04;;;;;;;;;;;;;;;8.94;95.84;99317.03;2567910;30;139396;-36
2022/02/17 03:47:32;;;;;;;;;;;;;;;8.91;97.50;99310.16;2567134;30;140684;-36
2022/02/17 03:50:07;;;;;;;;;;;;;;;9.01;90.54;99315.81;2566445;30;139419;-36
2022/02/17 03:52:37;;;;;;;;;;;;;;;9.11;86.14;99325.28;2567810;30;140497;-37
2022/02/17 03:55:12;;;;;;;;;;;;;;;9.07;87.37;99355.69;2568342;30;138294;-37
2022/02/17 03:57:44;;;;;;;;;;;;;;;9.09;88.41;99320.06;2568676;30;138953;-36
2022/02/17 04:00:15;;;;;;;;;;;;;;;9.05;85.72;99321.59;2568211;30;139017;-36
2022/02/17 04:02:45;;;;;;;;;;;;;;;9.13;85.47;99334.84;2568227;30;136658;-36
2022/02/17 04:05:18;;;;;;;;;;;;;;;9.06;83.79;99337.72;2567222;30;137992;-36
2022/02/17 04:07:47;;;;;;;;;;;;;;;9.03;82.78;99319.16;2568117;30;138489;-37
2022/02/17 04:10:25;;;;;;;;;;;;;;;9.09;83.41;99324.69;2568127;30;138901;-36
2022/02/17 04:12:55;;;;;;;;;;;;;;;9.05;85.32;99343.38;2568432;30;138180;-37
2022/02/17 04:15:25;;;;;;;;;;;;;;;9.03;85.96;99343.63;2569592;30;139342;-36
2022/02/17 04:17:54;;;;;;;;;;;;;;;9.04;84.17;99348.00;2568556;30;138320;-36
2022/02/17 04:20:35;;;;;;;;;;;;;;;9.01;87.48;99372.13;2568495;30;138541;-36
2022/02/17 04:23:09;;;;;;;;;;;;;;;9.04;86.19;99383.38;2565733;30;140211;-36
2022/02/17 04:25:39;;;;;;;;;;;;;;;9.17;84.07;99387.72;2568660;30;138589;-38
2022/02/17 04:28:12;;;;;;;;;;;;;;;9.23;82.69;99394.09;2568959;30;139601;-37
2022/02/17 04:30:42;;;;;;;;;;;;;;;9.26;82.30;99387.34;2568783;30;138198;-36
2022/02/17 04:33:10;;;;;;;;;;;;;;;9.23;84.03;99396.00;2567616;30;140188;-36
2022/02/17 04:35:45;;;;;;;;;;;;;;;9.17;84.80;99419.53;2567413;30;137560;-37
2022/02/17 04:38:14;;;;;;;;;;;;;;;9.11;84.68;99399.53;2568596;30;140064;-36
2022/02/17 04:43:39;;;;;;;;;;;;;;;9.25;82.80;99407.47;2567985;30;140480;-37
2022/02/17 04:46:07;;;;;;;;;;;;;;;9.23;85.45;99434.91;2569524;30;137110;-36
2022/02/17 04:48:35;;;;;;;;;;;;;;;9.23;82.31;99440.34;2568423;30;139757;-37
2022/02/17 04:51:08;;;;;;;;;;;;;;;9.24;83.50;99441.19;2568387;30;139042;-37
2022/02/17 04:53:36;;;;;;;;;;;;;;;9.18;81.74;99451.97;2569108;30;140971;-37
2022/02/17 04:56:04;;;;;;;;;;;;;;;9.16;82.43;99439.66;2568505;30;137299;-36
2022/02/17 04:58:35;;;;;;;;;;;;;;;9.18;80.88;99443.81;2566943;30;138039;-36
2022/02/17 05:01:03;;;;;;;;;;;;;;;9.18;81.66;99445.69;2568394;30;137063;-36
2022/02/17 05:03:49;;;;;;;;;;;;;;;9.15;80.71;99460.63;2568426;30;136819;-36
2022/02/17 05:06:20;;;;;;;;;;;;;;;9.15;79.96;99482.38;2568838;30;137238;-37
2022/02/17 05:08:53;;;;;;;;;;;;;;;9.15;79.87;99476.09;2567394;30;139082;-36
2022/02/17 05:11:21;;;;;;;;;;;;;;;9.07;79.97;99466.38;2567650;30;137137;-36
2022/02/17 05:13:51;;;;;;;;;;;;;;;9.06;77.76;99476.47;2568488;30;140045;-36
2022/02/17 05:16:19;;;;;;;;;;;;;;;9.07;81.75;99472.69;2568135;30;137307;-36
2022/02/17 05:18:47;;;;;;;;;;;;;;;9.09;81.43;99468.88;2568449;30;138143;-36
2022/02/17 05:21:18;;;;;;;;;;;;;;;8.99;83.72;99462.13;2568484;30;136806;-37
2022/02/17 05:24:06;;;;;;;;;;;;;;;8.92;83.27;99475.00;2567470;30;137869;-36
2022/02/17 05:26:51;;;;;;;;;;;;;;;8.88;85.57;99482.00;2568940;30;136735;-36
2022/02/17 05:29:30;;;;;;;;;;;;;;;8.85;85.17;99485.19;2567272;30;141075;-36
2022/02/17 05:32:21;;;;;;;;;;;;;;;8.85;83.74;99498.78;2567821;30;136609;-36
2022/02/17 05:35:20;;;;;;;;;;;;;;;8.85;83.30;99501.50;2568904;30;140691;-36
2022/02/17 05:38:13;;;;;;;;;;;;;;;8.78;82.87;99497.00;2568981;30;137159;-36
2022/02/17 05:40:59;;;;;;;;;;;;;;;8.82;82.34;99496.53;2569920;30;136811;-36
2022/02/17 05:43:27;;;;;;;;;;;;;;;8.80;82.47;99502.19;2568773;30;137271;-37
2022/02/17 05:45:54;;;;;;;;;;;;;;;8.83;81.66;99509.88;2569606;30;137414;-36
2022/02/17 05:48:23;;;;;;;;;;;;;;;8.88;82.09;99528.22;2568450;30;138004;-36
2022/02/17 05:50:51;;;;;;;;;;;;;;;8.84;82.02;99530.56;2567520;30;139119;-37
2022/02/17 05:53:19;;;;;;;;;;;;;;;8.84;81.92;99541.44;2569094;30;137505;-36
2022/02/17 05:55:46;;;;;;;;;;;;;;;8.89;81.03;99548.94;2567956;30;139193;-36
2022/02/17 05:58:14;;;;;;;;;;;;;;;8.89;80.35;99563.38;2568058;30;136678;-36
2022/02/17 06:00:42;;;;;;;;;;;;;;;8.92;80.19;99556.63;2568393;30;137610;-36
2022/02/17 06:03:10;;;;;;;;;;;;;;;8.96;78.75;99557.00;2569960;30;136589;-36
2022/02/17 06:05:38;;;;;;;;;;;;;;;8.98;81.35;99569.28;2565644;30;138905;-36
2022/02/17 06:08:07;;;;;;;;;;;;;;;8.96;80.69;99567.88;2568851;30;137066;-36
2022/02/17 06:10:36;;;;;;;;;;;;;;;8.96;78.03;99595.06;2567539;30;138979;-36
2022/02/17 06:13:04;;;;;;;;;;;;;;;8.88;78.76;99580.72;2569309;30;137082;-36
2022/02/17 06:15:32;;;;;;;;;;;;;;;8.81;78.27;99587.34;2566928;30;138220;-36
2022/02/17 06:18:00;;;;;;;;;;;;;;;8.77;77.59;99576.09;2568622;30;137152;-36
2022/02/17 06:20:28;;;;;;;;;;;;;;;8.83;75.94;99577.06;2568758;30;138268;-37
2022/02/17 06:22:56;;;;;;;;;;;;;;;8.76;76.44;99586.16;2567635;30;137261;-36
2022/02/17 06:25:24;;;;;;;;;;;;;;;8.80;75.52;99593.84;2566699;30;139230;-36
2022/02/17 06:27:52;;;;;;;;;;;;;;;8.73;75.46;99600.19;2569144;30;137124;-36
2022/02/17 06:30:20;;;;;;;;;;;;;;;8.80;74.26;99621.84;2569326;30;137521;-36
2022/02/17 06:32:50;;;;;;;;;;;;;;;8.83;74.01;99626.00;2568462;30;137101;-36
2022/02/17 06:35:29;;;;;;;;;;;;;;;8.83;72.62;99628.72;2566244;30;138214;-36
2022/02/17 06:38:02;;;;;;;;;;;;;;;8.86;72.38;99633.72;2568614;30;137316;-36
2022/02/17 06:40:30;;;;;;;;;;;;;;;8.85;73.49;99648.38;2568409;30;137799;-36
2022/02/17 06:43:10;;;;;;;;;;;;;;;8.84;73.43;99652.97;2567441;30;136768;-36
2022/02/17 06:45:39;;;;;;;;;;;;;;;8.86;73.54;99660.91;2568010;30;138346;-36
2022/02/17 06:48:07;;;;;;;;;;;;;;;8.86;73.32;99669.06;2567954;30;137928;-36
2022/02/17 06:50:35;;;;;;;;;;;;;;;8.84;73.86;99671.19;2566967;30;138355;-37
2022/02/17 06:53:05;;;;;;;;;;;;;;;8.84;72.80;99665.75;2566986;30;137320;-36
2022/02/17 06:55:34;;;;;;;;;;;;;;;8.85;73.30;99687.25;2568089;30;137263;-36
2022/02/17 06:58:05;;;;;;;;;;;;;;;8.77;74.31;99701.19;2568285;30;136941;-36
2022/02/17 07:00:32;;;;;;;;;;;;;;;8.80;72.66;99694.47;2568464;30;138382;-36
2022/02/17 07:03:04;;;;;;;;;;;;;;;8.84;72.43;99706.53;2568416;30;136943;-36
2022/02/17 07:05:34;;;;;;;;;;;;;;;8.83;73.55;99722.03;2568001;30;138215;-36
2022/02/17 07:08:03;;;;;;;;;;;;;;;8.77;75.31;99726.50;2568492;30;137186;-36
2022/02/17 07:13:17;;;;;;;;;;;;;;;8.85;71.18;99740.84;2568639;30;137251;-37
2022/02/17 07:17:21;;;;;;;;;;;;;;;8.84;68.79;99763.66;2567098;30;156040;-40
2022/02/17 07:19:48;;;;;;;;;;;;;;;8.83;70.06;99760.09;2567538;30;137188;-40
2022/02/17 07:22:16;;;;;;;;;;;;;;;8.80;70.18;99781.50;2569217;30;137264;-40
2022/02/17 07:24:44;;;;;;;;;;;;;;;8.80;71.18;99779.59;2567975;30;138325;-40
2022/02/17 07:27:12;;;;;;;;;;;;;;;8.75;72.07;99783.00;2566523;30;138902;-40
2022/02/17 07:29:40;;;;;;;;;;;;;;;8.73;71.37;99795.97;2566578;30;136869;-40
2022/02/17 07:32:10;;;;;;;;;;;;;;;8.70;71.42;99791.00;2568563;30;137154;-40
2022/02/17 07:34:38;;;;;;;;;;;;;;;8.65;72.49;99806.34;2567800;30;138008;-40
2022/02/17 07:37:06;;;;;;;;;;;;;;;8.66;72.75;99808.00;2568639;30;138987;-40
2022/02/17 07:39:34;;;;;;;;;;;;;;;8.68;72.14;99823.03;2567214;30;137267;-40
2022/02/17 07:42:02;;;;;;;;;;;;;;;8.70;71.39;99825.53;2568124;30;138996;-40
2022/02/17 07:44:31;;;;;;;;;;;;;;;8.68;72.74;99824.91;2568758;30;137072;-40
2022/02/17 07:46:59;;;;;;;;;;;;;;;8.71;70.26;99814.41;2567251;30;139871;-40
2022/02/17 07:49:27;;;;;;;;;;;;;;;8.77;69.35;99832.56;2569421;30;137047;-40
2022/02/17 07:51:54;;;;;;;;;;;;;;;8.78;70.94;99831.50;2568301;30;137371;-41
2022/02/17 07:54:25;;;;;;;;;;;;;;;8.80;70.52;99835.88;2569282;30;138017;-40
2022/02/17 07:56:53;;;;;;;;;;;;;;;8.83;70.39;99841.69;2568981;30;138445;-40
2022/02/17 07:59:21;;;;;;;;;;;;;;;8.84;69.34;99846.06;2569406;30;138041;-40
2022/02/17 08:01:49;;;;;;;;;;;;;;;8.91;70.30;99859.63;2570141;30;138253;-40
2022/02/17 08:04:17;;;;;;;;;;;;;;;8.89;70.55;99842.69;2568875;30;136858;-40
2022/02/17 08:06:45;;;;;;;;;;;;;;;8.92;68.47;99859.41;2567095;30;137935;-40
2022/02/17 08:09:13;;;;;;;;;;;;;;;8.97;69.89;99866.06;2569013;30;137241;-40
2022/02/17 08:11:41;;;;;;;;;;;;;;;9.02;68.56;99856.16;2568485;30;138901;-40
2022/02/17 08:14:09;;;;;;;;;;;;;;;9.08;68.59;99862.56;2569064;30;137277;-40
2022/02/17 08:16:37;;;;;;;;;;;;;;;9.09;69.30;99877.84;2566951;30;139162;-40
2022/02/17 08:19:09;;;;;;;;;;;;;;;9.04;68.82;99870.38;2567052;30;137232;-40
2022/02/17 08:21:42;;;;;;;;;;;;;;;9.04;70.80;99888.56;2567964;30;139035;-40
2022/02/17 08:24:11;;;;;;;;;;;;;;;9.03;69.88;99901.38;2565666;30;136713;-40
2022/02/17 08:26:40;;;;;;;;;;;;;;;9.02;69.22;99883.38;2569084;30;137308;-40
2022/02/17 08:29:08;;;;;;;;;;;;;;;9.05;71.01;99890.25;2567014;30;137545;-40
2022/02/17 08:31:36;;;;;;;;;;;;;;;9.20;69.76;99889.88;2568647;30;138409;-40
2022/02/17 08:34:04;;;;;;;;;;;;;;;9.31;68.61;99899.16;2569125;30;137069;-40
2022/02/17 08:36:33;;;;;;;;;;;;;;;9.30;68.21;99902.94;2566481;30;138438;-40
2022/02/17 08:39:01;;;;;;;;;;;;;;;9.25;68.79;99910.97;2568787;30;136740;-40
2022/02/17 08:41:29;;;;;;;;;;;;;;;9.26;70.02;99935.22;2568807;30;139199;-40
2022/02/17 08:43:56;;;;;;;;;;;;;;;9.20;68.16;99944.28;2569017;30;137326;-40
2022/02/17 08:46:27;;;;;;;;;;;;;;;9.18;66.84;99930.94;2569340;30;138384;-40
2022/02/17 08:48:55;;;;;;;;;;;;;;;9.32;66.96;99938.94;2569439;30;137203;-40
2022/02/17 08:51:25;;;;;;;;;;;;;;;9.23;66.44;99954.72;2569214;30;137358;-40
2022/02/17 08:53:53;;;;;;;;;;;;;;;9.20;68.07;99952.47;2568294;30;137000;-40
2022/02/17 08:56:21;;;;;;;;;;;;;;;9.17;68.98;99969.25;2569244;30;138206;-40
2022/02/17 08:58:49;;;;;;;;;;;;;;;9.18;70.72;99974.47;2569253;30;137160;-40
2022/02/17 09:01:17;;;;;;;;;;;;;;;9.18;69.19;99976.34;2565922;38;139096;-40
2022/02/17 09:03:45;;;;;;;;;;;;;;;9.28;66.76;99965.81;2565769;30;136996;-40
2022/02/17 09:06:14;;;;;;;;;;;;;;;9.26;66.98;99977.97;2569041;30;137436;-40
2022/02/17 09:08:47;;;;;;;;;;;;;;;9.26;68.39;99986.13;2568334;30;139521;-40
2022/02/17 09:11:15;;;;;;;;;;;;;;;9.32;65.30;99996.97;2568764;30;138421;-40
2022/02/17 09:13:43;;;;;;;;;;;;;;;9.33;65.54;99992.31;2568586;30;136992;-40
2022/02/17 09:16:11;;;;;;;;;;;;;;;9.23;63.43;100001.00;2564820;30;138230;-41
2022/02/17 09:18:39;;;;;;;;;;;;;;;9.21;63.82;100019.44;2568904;30;137845;-40
2022/02/17 09:21:06;;;;;;;;;;;;;;;9.28;65.88;100009.34;2567970;30;138911;-40
2022/02/17 09:23:34;;;;;;;;;;;;;;;9.18;66.42;100030.78;2568369;30;137859;-40
2022/02/17 09:26:03;;;;;;;;;;;;;;;9.06;64.82;100045.13;2569174;30;137435;-40
2022/02/17 09:28:38;;;;;;;;;;;;;;;9.22;64.76;100034.72;2568353;30;137068;-40
2022/02/17 09:31:19;;;;;;;;;;;;;;;9.34;63.77;100037.53;2569520;30;138158;-40
2022/02/17 09:33:49;;;;;;;;;;;;;;;9.27;61.62;100024.00;2569092;30;136777;-40
2022/02/17 09:36:17;;;;;;;;;;;;;;;9.28;62.24;100042.00;2567821;30;138422;-40
2022/02/17 09:38:45;;;;;;;;;;;;;;;9.47;63.20;100061.94;2569510;30;136977;-40
2022/02/17 09:41:16;;;;;;;;;;;;;;;9.41;63.30;100060.09;2567940;30;138365;-40
2022/02/17 09:43:44;;;;;;;;;;;;;;;9.28;63.77;100071.09;2569093;30;136761;-40
2022/02/17 09:46:21;;;;;;;;;;;;;;;9.19;64.76;100076.84;2568981;30;138374;-40
2022/02/17 09:48:55;;;;;;;;;;;;;;;9.10;64.83;100093.66;2568823;30;137188;-40
2022/02/17 09:51:24;;;;;;;;;;;;;;;9.01;65.86;100091.19;2567507;30;138224;-40
2022/02/17 09:53:52;;;;;;;;;;;;;;;8.96;67.44;100098.34;2566704;30;137326;-40
2022/02/17 09:56:22;;;;;;;;;;;;;;;9.01;67.20;100093.09;2565099;30;138166;-40
2022/02/17 09:58:54;;;;;;;;;;;;;;;9.24;65.81;100089.75;2568557;30;138230;-40
2022/02/17 10:01:26;;;;;;;;;;;;;;;9.50;65.67;100106.94;2566680;30;138401;-40
2022/02/17 10:04:10;;;;;;;;;;;;;;;9.71;61.99;100110.31;2565891;30;137900;-40
2022/02/17 10:06:42;;;;;;;;;;;;;;;9.80;60.91;100111.69;2568782;30;138172;-40
2022/02/17 10:09:10;;;;;;;;;;;;;;;9.79;61.72;100121.75;2569478;30;137304;-40
2022/02/17 10:11:39;;;;;;;;;;;;;;;9.89;60.15;100107.63;2567917;30;137420;-40
2022/02/17 10:14:12;;;;;;;;;;;;;;;9.85;61.50;100119.19;2568667;30;137207;-40
2022/02/17 10:16:54;;;;;;;;;;;;;;;9.71;61.54;100140.28;2568939;30;138374;-40
2022/02/17 10:19:24;;;;;;;;;;;;;;;9.66;61.22;100134.66;2568537;30;137002;-40
2022/02/17 10:22:22;;;;;;;;;;;;;;;9.70;62.92;100165.84;2568160;30;137174;-40
2022/02/17 10:24:51;;;;;;;;;;;;;;;9.60;62.60;100145.41;2568336;30;137763;-40
2022/02/17 10:27:27;;;;;;;;;;;;;;;9.53;61.71;100163.66;2568828;30;138152;-40
2022/02/17 10:30:00;;;;;;;;;;;;;;;9.55;60.34;100167.03;2569097;30;137296;-40
2022/02/17 10:32:28;;;;;;;;;;;;;;;9.58;58.95;100174.75;2568668;30;138255;-40
2022/02/17 10:35:12;;;;;;;;;;;;;;;9.41;56.58;100173.63;2569322;30;136998;-40
2022/02/17 10:37:44;;;;;;;;;;;;;;;9.32;57.81;100195.69;2568213;30;138346;-40
2022/02/17 10:40:14;;;;;;;;;;;;;;;9.28;58.61;100199.03;2566754;30;136749;-40
2022/02/17 10:42:42;;;;;;;;;;;;;;;9.26;58.76;100187.53;2569164;30;138513;-40
2022/02/17 10:45:30;;;;;;;;;;;;;;;9.28;58.75;100193.59;2568838;30;137104;-40
2022/02/17 10:48:13;;;;;;;;;;;;;;;9.32;59.65;100195.69;2567349;30;138387;-40
2022/02/17 10:50:42;;;;;;;;;;;;;;;9.43;60.44;100201.47;2568409;30;136763;-40
2022/02/17 10:53:20;;;;;;;;;;;;;;;9.46;60.48;100201.88;2569531;30;137280;-40
2022/02/17 10:55:58;;;;;;;;;;;;;;;9.66;60.47;100195.41;2567057;30;137216;-40
2022/02/17 10:58:29;;;;;;;;;;;;;;;9.65;59.35;100207.34;2568439;30;138347;-40
2022/02/17 11:00:59;;;;;;;;;;;;;;;9.66;58.97;100211.75;2567003;30;137198;-40
2022/02/17 11:03:29;;;;;;;;;;;;;;;9.88;58.01;100214.94;2567383;30;138264;-40
2022/02/17 11:06:07;;;;;;;;;;;;;;;9.99;58.79;100220.72;2565866;30;136677;-40
2022/02/17 11:08:37;;;;;;;;;;;;;;;10.14;57.54;100215.75;2567659;30;138346;-40
2022/02/17 11:11:05;;;;;;;;;;;;;;;10.24;58.21;100209.78;2567967;30;137123;-40
2022/02/17 11:13:33;;;;;;;;;;;;;;;10.16;56.66;100226.41;2568263;30;139295;-40
2022/02/17 11:16:07;;;;;;;;;;;;;;;10.17;58.29;100228.09;2568560;30;137231;-40
2022/02/17 11:18:34;;;;;;;;;;;;;;;10.15;58.82;100219.31;2567025;30;138149;-41
2022/02/17 11:21:02;;;;;;;;;;;;;;;10.16;57.57;100221.81;2568678;30;136960;-40
2022/02/17 11:23:32;;;;;;;;;;;;;;;10.11;56.28;100224.38;2568474;30;138264;-40
2022/02/17 11:26:02;;;;;;;;;;;;;;;9.98;56.51;100219.03;2567984;30;137741;-40
2022/02/17 11:28:32;;;;;;;;;;;;;;;9.89;52.45;100238.41;2568771;30;139443;-40
2022/02/17 11:31:03;;;;;;;;;;;;;;;9.98;54.76;100244.41;2568459;30;136947;-40
2022/02/17 11:33:35;;;;;;;;;;;;;;;10.21;55.13;100243.78;2568652;30;139212;-40
2022/02/17 11:36:08;;;;;;;;;;;;;;;10.40;52.97;100253.88;2566868;30;137407;-40
2022/02/17 11:38:36;;;;;;;;;;;;;;;10.63;53.70;100240.44;2568246;30;138553;-40
2022/02/17 11:41:10;;;;;;;;;;;;;;;10.56;53.11;100266.13;2567908;30;137079;-40
2022/02/17 11:43:39;;;;;;;;;;;;;;;10.76;52.09;100260.47;2568611;30;137346;-40
2022/02/17 11:46:09;;;;;;;;;;;;;;;10.84;51.65;100259.31;2569967;30;136862;-40
2022/02/17 11:48:39;;;;;;;;;;;;;;;10.74;51.04;100260.69;2565656;30;139504;-40
2022/02/17 11:51:11;;;;;;;;;;;;;;;10.83;51.88;100260.38;2569368;30;136919;-40
2022/02/17 11:53:41;;;;;;;;;;;;;;;10.99;50.94;100272.56;2567917;30;138859;-40
2022/02/17 11:56:18;;;;;;;;;;;;;;;11.15;52.97;100287.50;2568091;30;137277;-40
2022/02/17 11:58:47;;;;;;;;;;;;;;;11.08;50.24;100279.41;2568671;30;137463;-40
2022/02/17 12:01:21;;;;;;;;;;;;;;;11.20;51.38;100276.72;2567801;30;136803;-40
2022/02/17 12:03:59;;;;;;;;;;;;;;;11.31;52.12;100265.00;2568476;30;137769;-41
2022/02/17 12:06:53;;;;;;;;;;;;;;;11.30;51.03;100285.19;2568233;30;137193;-40
2022/02/17 12:09:35;;;;;;;;;;;;;;;10.94;50.83;100284.19;2566180;30;137924;-40
2022/02/17 12:12:36;;;;;;;;;;;;;;;11.04;50.29;100289.09;2568248;30;137011;-40
2022/02/17 12:15:05;;;;;;;;;;;;;;;11.00;50.82;100285.16;2567812;30;138033;-40
2022/02/17 12:17:34;;;;;;;;;;;;;;;11.05;51.57;100282.59;2568682;30;138047;-40
2022/02/17 12:20:06;;;;;;;;;;;;;;;11.11;51.81;100295.31;2568963;30;138284;-40
2022/02/17 12:22:34;;;;;;;;;;;;;;;11.03;49.58;100285.53;2566166;30;137793;-41
2022/02/17 12:25:11;;;;;;;;;;;;;;;11.15;51.43;100299.25;2566139;30;137770;-41
2022/02/17 12:27:40;;;;;;;;;;;;;;;11.13;48.07;100284.16;2567973;30;136968;-40
2022/02/17 12:30:08;;;;;;;;;;;;;;;10.98;49.98;100281.81;2566614;30;139480;-40
2022/02/17 12:32:36;;;;;;;;;;;;;;;10.62;50.09;100301.53;2567517;30;137333;-40
2022/02/17 12:35:04;;;;;;;;;;;;;;;10.32;49.01;100302.19;2569559;30;137737;-40
2022/02/17 12:37:32;;;;;;;;;;;;;;;10.22;50.41;100280.88;2565900;30;137245;-40
2022/02/17 12:40:00;;;;;;;;;;;;;;;10.32;51.80;100283.09;2569036;30;138123;-40
2022/02/17 12:42:38;;;;;;;;;;;;;;;10.71;52.33;100279.38;2568977;30;137043;-40
2022/02/17 12:45:06;;;;;;;;;;;;;;;11.19;53.91;100283.25;2567096;30;136899;-40
2022/02/17 12:47:35;;;;;;;;;;;;;;;11.29;53.21;100282.72;2568643;30;136791;-40
2022/02/17 12:50:03;;;;;;;;;;;;;;;11.37;52.00;100277.72;2569100;30;139034;-40
2022/02/17 12:52:31;;;;;;;;;;;;;;;11.57;52.49;100264.88;2569019;30;137139;-40
2022/02/17 12:54:59;;;;;;;;;;;;;;;11.66;53.92;100256.09;2568392;30;138771;-40
2022/02/17 12:57:27;;;;;;;;;;;;;;;11.51;52.01;100261.16;2569047;30;137390;-40
2022/02/17 12:59:56;;;;;;;;;;;;;;;11.51;52.33;100289.31;2568709;30;139156;-40
2022/02/17 13:02:25;;;;;;;;;;;;;;;11.25;53.15;100295.97;2567611;30;136939;-40
2022/02/17 13:04:53;;;;;;;;;;;;;;;10.92;54.59;100289.84;2569253;30;138361;-40